イスタンブル の空港の天気 - METARとTAF

アタテュルク国際空港(イスタンブル) ( LTBA / IST ) - トルコ イスタンブル
飛行場実況気象(Metar)
観測時間04/21 19:50 EET (04/21 16:50 UTC)
風向・風速北北東 3m/s
視程10km以上
天気現象
なし
気温12℃
湿度32%
気圧1023hPa
METARLTBA 211650Z 03006KT 360V070 CAVOK 12/M04 Q1023 NOSIG
過去の天気等 Google飛行場航空写真 Wunderground天気予報

過去48時間のMETAR

飛行場予報(TAF)
発表時間: 4/21 13:40 EET (4/21 10:40 UTC)
予報対象時間: 21日15時 EET ~ 22日21時 EET
風向・風速北北東 6m/s
視程10km以上
少しの雲 雲底高度 1070m
21日15時 EET ~ 21日18時 EET に徐々に
視程10km以上
なし
21日18時 EET ~ 21日21時 EET に徐々に
風向・風速不定 1m/s
22日10時 EET ~ 22日13時 EET に徐々に
風向・風速南西 6m/s
22日17時 EET ~ 22日20時 EET に徐々に
風向・風速北東 6m/s
TAF LTBA 211040Z 2112/2218 02012KT 9999 FEW035
BECMG 2112/2115 CAVOK
BECMG 2115/2118 VRB02KT
BECMG 2207/2210 23012KT
BECMG 2214/2217 04012KT